createdAt,value
2017-12-23T00:01:53.324Z,6.28
2017-12-23T00:04:28.222Z,6.25
2017-12-23T00:07:03.362Z,6.27
2017-12-23T00:09:38.377Z,6.33
2017-12-23T00:12:13.285Z,6.40
2017-12-23T00:14:48.300Z,6.44
2017-12-23T00:17:23.191Z,6.49
2017-12-23T00:19:58.284Z,6.51
2017-12-23T00:22:33.191Z,6.45
2017-12-23T00:25:08.109Z,6.50
2017-12-23T00:27:42.924Z,6.53
2017-12-23T00:30:17.730Z,6.57
2017-12-23T00:32:52.562Z,6.58
2017-12-23T00:35:27.469Z,6.56
2017-12-23T00:38:02.422Z,6.56
2017-12-23T00:40:37.603Z,6.57
2017-12-23T00:43:12.701Z,6.55
2017-12-23T00:45:47.832Z,6.59
2017-12-23T00:48:23.065Z,6.60
2017-12-23T00:50:58.121Z,6.57
2017-12-23T00:53:33.241Z,6.62
2017-12-23T00:56:08.454Z,6.63
2017-12-23T00:58:43.552Z,6.65
2017-12-23T01:01:18.598Z,6.64
2017-12-23T01:03:53.651Z,6.62
2017-12-23T01:06:28.448Z,6.52
2017-12-23T01:09:03.144Z,6.52
2017-12-23T01:11:38.437Z,6.54
2017-12-23T01:14:13.149Z,6.56
2017-12-23T01:16:48.218Z,6.59
2017-12-23T01:19:23.029Z,6.59
2017-12-23T01:21:58.137Z,6.62
2017-12-23T01:24:33.242Z,6.61
2017-12-23T01:27:08.145Z,6.66
2017-12-23T01:29:43.053Z,6.70
2017-12-23T01:32:17.996Z,6.69
2017-12-23T01:34:53.033Z,6.64
2017-12-23T01:37:27.939Z,6.58
2017-12-23T01:40:02.849Z,6.56
2017-12-23T01:42:37.978Z,6.59
2017-12-23T01:45:12.820Z,6.62
2017-12-23T01:47:48.048Z,6.67
2017-12-23T01:50:23.172Z,6.69
2017-12-23T01:52:57.940Z,6.74
2017-12-23T01:55:32.990Z,6.72
2017-12-23T01:58:07.795Z,6.70
2017-12-23T02:00:42.901Z,6.73
2017-12-23T02:03:17.820Z,6.78
2017-12-23T02:05:52.957Z,6.84
2017-12-23T02:08:28.058Z,6.85
2017-12-23T02:11:03.084Z,6.86
2017-12-23T02:13:38.237Z,6.88
2017-12-23T02:16:13.344Z,6.90
2017-12-23T02:18:48.469Z,6.92
2017-12-23T02:21:23.421Z,6.91
2017-12-23T02:23:58.453Z,6.96
2017-12-23T02:29:30.030Z,6.99
2017-12-23T02:32:05.144Z,6.95
2017-12-23T02:34:40.195Z,6.94
2017-12-23T02:37:15.293Z,7.00
2017-12-23T02:39:50.563Z,7.03
2017-12-23T02:42:25.341Z,7.08
2017-12-23T02:44:59.833Z,7.11
2017-12-23T02:47:34.960Z,7.09
2017-12-23T02:50:10.092Z,7.10
2017-12-23T02:52:44.991Z,7.18
2017-12-23T02:55:19.973Z,7.22
2017-12-23T02:57:55.179Z,7.26
2017-12-23T03:00:30.452Z,7.31
2017-12-23T03:03:05.458Z,7.37
2017-12-23T03:05:40.342Z,7.43
2017-12-23T03:08:15.345Z,7.46
2017-12-23T03:10:50.724Z,7.47
2017-12-23T03:13:25.850Z,7.52
2017-12-23T03:16:00.960Z,7.56
2017-12-23T03:18:36.149Z,7.56
2017-12-23T03:21:11.136Z,7.56
2017-12-23T03:23:46.262Z,7.57
2017-12-23T03:26:21.365Z,7.63
2017-12-23T03:28:58.088Z,7.68
2017-12-23T03:31:32.893Z,7.73
2017-12-23T03:34:08.221Z,7.76
2017-12-23T03:36:43.119Z,7.77
2017-12-23T03:39:18.229Z,7.80
2017-12-23T03:41:52.995Z,7.83
2017-12-23T03:44:27.980Z,7.85
2017-12-23T03:47:03.105Z,7.84
2017-12-23T03:49:38.113Z,7.90
2017-12-23T03:52:13.291Z,7.92
2017-12-23T03:54:48.593Z,7.94
2017-12-23T03:57:24.529Z,7.95
2017-12-23T03:59:59.521Z,7.98
2017-12-23T04:02:34.549Z,8.02
2017-12-23T04:05:09.372Z,8.05
2017-12-23T04:07:44.645Z,8.09
2017-12-23T04:10:19.745Z,8.17
2017-12-23T04:12:54.664Z,8.18
2017-12-23T04:15:29.781Z,8.19
2017-12-23T04:18:04.343Z,8.17
2017-12-23T04:20:39.400Z,8.20
2017-12-23T04:23:14.379Z,8.26
2017-12-23T04:25:49.557Z,8.26
2017-12-23T04:28:24.556Z,8.30
2017-12-23T04:30:59.642Z,8.27
2017-12-23T04:33:34.641Z,8.27
2017-12-23T04:36:09.801Z,8.25
2017-12-23T04:38:44.816Z,8.29
2017-12-23T04:41:19.945Z,8.33
2017-12-23T04:43:54.960Z,8.37
2017-12-23T04:46:30.252Z,8.42
2017-12-23T04:49:05.560Z,8.44
2017-12-23T04:51:40.570Z,8.48
2017-12-23T04:54:15.361Z,8.52
2017-12-23T04:56:50.344Z,8.55
2017-12-23T04:59:25.561Z,8.49
2017-12-23T05:02:00.817Z,8.44
2017-12-23T05:04:36.103Z,8.48
2017-12-23T05:07:11.096Z,8.51
2017-12-23T05:09:45.872Z,8.48
2017-12-23T05:12:21.033Z,8.54
2017-12-23T05:14:56.106Z,8.56
2017-12-23T05:17:30.989Z,8.53
2017-12-23T05:20:05.992Z,8.55
2017-12-23T05:22:41.192Z,8.55
2017-12-23T05:25:16.372Z,8.55
2017-12-23T05:27:51.352Z,8.57
2017-12-23T05:30:26.371Z,8.58
2017-12-23T05:33:01.657Z,8.58
2017-12-23T05:35:36.748Z,8.60
2017-12-23T05:38:11.817Z,8.63
2017-12-23T05:40:46.841Z,8.69
2017-12-23T05:43:21.865Z,8.71
2017-12-23T05:45:56.887Z,8.63
2017-12-23T05:48:31.875Z,8.68
2017-12-23T05:51:06.834Z,8.66
2017-12-23T05:53:41.743Z,8.69
2017-12-23T05:56:16.620Z,8.72
2017-12-23T05:58:51.720Z,8.73
2017-12-23T06:01:26.736Z,8.70
2017-12-23T06:04:01.582Z,8.70
2017-12-23T06:06:36.484Z,8.74
2017-12-23T06:09:11.511Z,8.75
2017-12-23T06:11:46.288Z,8.78
2017-12-23T06:14:21.160Z,8.77
2017-12-23T06:16:56.383Z,8.79
2017-12-23T06:19:31.360Z,8.82
2017-12-23T06:22:06.450Z,8.80
2017-12-23T06:24:41.453Z,8.81
2017-12-23T06:27:16.494Z,8.83
2017-12-23T06:29:51.316Z,8.84
2017-12-23T06:32:26.356Z,8.85
2017-12-23T06:35:01.632Z,8.84
2017-12-23T06:37:36.646Z,8.84
2017-12-23T06:40:11.521Z,8.82
2017-12-23T06:42:46.496Z,8.80
2017-12-23T06:45:21.606Z,8.83
2017-12-23T06:47:56.603Z,8.87
2017-12-23T06:50:31.789Z,8.85
2017-12-23T06:53:07.064Z,8.87
2017-12-23T06:55:42.171Z,8.90
2017-12-23T06:58:16.978Z,8.95
2017-12-23T07:00:52.179Z,8.94
2017-12-23T07:03:27.396Z,8.89
2017-12-23T07:06:02.380Z,8.92
2017-12-23T07:08:37.381Z,8.95
2017-12-23T07:11:12.561Z,8.97
2017-12-23T07:13:47.667Z,8.93
2017-12-23T07:16:22.845Z,8.94
2017-12-23T07:18:58.116Z,8.94
2017-12-23T07:21:33.204Z,8.99
2017-12-23T07:24:08.223Z,9.00
2017-12-23T07:26:43.222Z,8.96
2017-12-23T07:29:17.670Z,9.01
2017-12-23T07:31:52.969Z,9.05
2017-12-23T07:34:28.086Z,9.04
2017-12-23T07:37:03.187Z,9.05
2017-12-23T07:39:38.321Z,9.05
2017-12-23T07:42:12.689Z,9.13
2017-12-23T07:44:47.798Z,9.16
2017-12-23T07:47:22.304Z,9.13
2017-12-23T07:49:57.534Z,9.10
2017-12-23T07:52:32.638Z,9.11
2017-12-23T07:55:07.675Z,9.12
2017-12-23T07:57:42.769Z,9.10
2017-12-23T08:00:18.089Z,9.06
2017-12-23T08:02:53.190Z,9.07
2017-12-23T08:05:28.278Z,9.02
2017-12-23T08:08:03.549Z,8.99
2017-12-23T08:10:38.520Z,9.06
2017-12-23T08:13:13.698Z,9.13
2017-12-23T08:15:48.704Z,9.17
2017-12-23T08:18:23.856Z,9.20
2017-12-23T08:20:58.741Z,9.20
2017-12-23T08:23:33.535Z,9.26
2017-12-23T08:26:08.529Z,9.28
2017-12-23T08:28:43.048Z,9.26
2017-12-23T08:31:18.302Z,9.23
2017-12-23T08:33:53.203Z,9.17
2017-12-23T08:36:28.332Z,9.13
2017-12-23T08:39:03.157Z,9.15
2017-12-23T08:41:37.532Z,9.19
2017-12-23T08:44:12.701Z,9.22
2017-12-23T08:46:47.698Z,9.24
2017-12-23T08:49:22.706Z,9.31
2017-12-23T08:51:57.098Z,9.36
2017-12-23T08:54:32.366Z,9.39
2017-12-23T08:57:07.276Z,9.40
2017-12-23T08:59:42.137Z,9.41
2017-12-23T09:02:17.169Z,9.35
2017-12-23T09:04:51.989Z,9.33
2017-12-23T09:07:27.141Z,9.35
2017-12-23T09:10:02.204Z,9.30
2017-12-23T09:12:37.269Z,9.23
2017-12-23T09:15:12.145Z,9.17
2017-12-23T09:17:47.167Z,9.17
2017-12-23T09:20:21.973Z,9.18
2017-12-23T09:22:57.148Z,9.20
2017-12-23T09:25:32.151Z,9.14
2017-12-23T09:28:07.066Z,9.13
2017-12-23T09:30:42.098Z,9.18
2017-12-23T09:33:17.094Z,9.21
2017-12-23T09:35:52.075Z,9.18
2017-12-23T09:38:26.850Z,9.22
2017-12-23T09:41:02.054Z,9.23
2017-12-23T09:43:36.880Z,9.20
2017-12-23T09:46:12.152Z,9.19
2017-12-23T09:48:47.032Z,9.21
2017-12-23T09:51:22.225Z,9.22
2017-12-23T09:53:57.242Z,9.24
2017-12-23T09:56:32.289Z,9.22
2017-12-23T09:59:07.261Z,9.23
2017-12-23T10:01:42.082Z,9.20
2017-12-23T10:04:17.097Z,9.21
2017-12-23T10:06:52.185Z,9.23
2017-12-23T10:09:27.430Z,9.24
2017-12-23T10:12:02.216Z,9.29
2017-12-23T10:14:37.026Z,9.30
2017-12-23T10:17:11.427Z,9.30
2017-12-23T10:19:46.556Z,9.34
2017-12-23T10:22:21.633Z,9.34
2017-12-23T10:24:56.938Z,9.34
2017-12-23T10:27:32.019Z,9.32
2017-12-23T10:30:06.640Z,9.35
2017-12-23T10:32:49.812Z,9.43
2017-12-23T10:35:24.478Z,9.39
2017-12-23T10:37:59.548Z,9.40
2017-12-23T10:40:34.505Z,9.43
2017-12-23T10:43:09.580Z,9.45
2017-12-23T10:45:44.721Z,9.47
2017-12-23T10:48:19.816Z,9.49
2017-12-23T10:50:54.802Z,9.49
2017-12-23T10:53:30.004Z,9.53
2017-12-23T10:56:05.005Z,9.56
2017-12-23T10:58:39.881Z,9.61
2017-12-23T11:01:14.790Z,9.61
2017-12-23T11:03:49.956Z,9.65
2017-12-23T11:06:25.187Z,9.64
2017-12-23T11:09:00.094Z,9.67
2017-12-23T11:11:35.179Z,9.69
2017-12-23T11:14:10.287Z,9.69
2017-12-23T11:16:45.381Z,9.69
2017-12-23T11:19:20.401Z,9.70
2017-12-23T11:21:55.141Z,9.70
2017-12-23T11:24:30.238Z,9.70
2017-12-23T11:27:05.340Z,9.75
2017-12-23T11:29:40.094Z,9.75
2017-12-23T11:32:15.372Z,9.75
2017-12-23T11:34:50.469Z,9.79
2017-12-23T11:37:25.528Z,9.78
2017-12-23T11:40:00.303Z,9.80
2017-12-23T11:42:35.313Z,9.83
2017-12-23T11:45:10.192Z,9.82
2017-12-23T11:47:45.097Z,9.83
2017-12-23T11:50:20.066Z,9.86
2017-12-23T11:52:55.085Z,9.85
2017-12-23T11:55:30.000Z,9.85
2017-12-23T11:58:05.285Z,9.81
2017-12-23T12:00:40.180Z,9.77
2017-12-23T12:03:15.350Z,9.76
2017-12-23T12:05:50.163Z,9.83
2017-12-23T12:08:25.496Z,9.83
2017-12-23T12:11:00.582Z,9.83
2017-12-23T12:13:35.396Z,9.87
2017-12-23T12:16:10.386Z,9.86
2017-12-23T12:18:45.487Z,9.85
2017-12-23T12:21:20.361Z,9.85
2017-12-23T12:23:55.584Z,9.87
2017-12-23T12:26:30.565Z,9.89
2017-12-23T12:29:05.427Z,9.90
2017-12-23T12:31:40.732Z,9.88
2017-12-23T12:34:15.621Z,9.89
2017-12-23T12:36:50.429Z,9.90
2017-12-23T12:39:25.731Z,9.95
2017-12-23T12:42:00.756Z,9.91
2017-12-23T12:44:35.761Z,9.88
2017-12-23T12:47:10.944Z,9.89
2017-12-23T12:49:45.948Z,9.90
2017-12-23T12:52:21.016Z,9.89
2017-12-23T12:54:56.131Z,9.86
2017-12-23T12:57:31.200Z,9.88
2017-12-23T13:00:06.138Z,9.86
2017-12-23T13:02:41.032Z,9.81
2017-12-23T13:05:16.100Z,9.82
2017-12-23T13:07:51.093Z,9.86
2017-12-23T13:10:26.124Z,9.84
2017-12-23T13:13:01.001Z,9.84
2017-12-23T13:15:35.897Z,9.83
2017-12-23T13:18:10.791Z,9.85
2017-12-23T13:20:45.888Z,9.85
2017-12-23T13:23:20.717Z,9.86
2017-12-23T13:25:55.621Z,9.87
2017-12-23T13:28:30.594Z,9.87
2017-12-23T13:31:05.503Z,9.83
2017-12-23T13:33:40.664Z,9.82
2017-12-23T13:36:15.960Z,9.85
2017-12-23T13:38:51.165Z,9.81
2017-12-23T13:41:26.064Z,9.80
2017-12-23T13:44:01.045Z,9.83
2017-12-23T13:46:36.016Z,9.88
2017-12-23T13:49:11.088Z,9.89
2017-12-23T13:51:46.213Z,9.89
2017-12-23T13:54:21.122Z,9.88
2017-12-23T13:56:56.041Z,9.93
2017-12-23T13:59:31.266Z,9.90
2017-12-23T14:02:06.221Z,9.87
2017-12-23T14:04:41.236Z,9.86
2017-12-23T14:07:16.145Z,9.85
2017-12-23T14:09:51.125Z,9.86
2017-12-23T14:12:26.246Z,9.86
2017-12-23T14:15:01.249Z,9.88
2017-12-23T14:17:36.072Z,9.91
2017-12-23T14:20:11.289Z,9.91
2017-12-23T14:22:46.499Z,9.91
2017-12-23T14:25:21.411Z,9.94
2017-12-23T14:27:56.505Z,9.94
2017-12-23T14:30:31.688Z,9.96
2017-12-23T14:33:06.698Z,9.97
2017-12-23T14:35:41.577Z,9.98
2017-12-23T14:38:16.554Z,9.96
2017-12-23T14:40:51.762Z,9.97
2017-12-23T14:43:26.898Z,9.93
2017-12-23T14:46:02.525Z,9.96
2017-12-23T14:48:37.153Z,9.96
2017-12-23T14:51:12.050Z,9.88
2017-12-23T14:53:47.309Z,9.94
2017-12-23T14:59:07.289Z,9.97
2017-12-23T15:01:42.390Z,9.97
2017-12-23T15:04:17.675Z,9.97
2017-12-23T15:06:52.864Z,9.95
2017-12-23T15:09:27.877Z,9.89
2017-12-23T15:12:02.903Z,9.92
2017-12-23T15:14:37.815Z,9.94
2017-12-23T15:17:12.911Z,9.89
2017-12-23T15:19:47.984Z,9.94
2017-12-23T15:22:22.896Z,9.96
2017-12-23T15:24:57.667Z,9.95
2017-12-23T15:27:32.713Z,9.91
2017-12-23T15:30:07.596Z,9.91
2017-12-23T15:32:42.573Z,9.88
2017-12-23T15:35:17.882Z,9.89
2017-12-23T15:37:52.850Z,9.94
2017-12-23T15:40:27.756Z,9.97
2017-12-23T15:43:02.727Z,9.91
2017-12-23T15:45:37.921Z,9.89
2017-12-23T15:48:13.105Z,9.94
2017-12-23T15:50:48.193Z,9.93
2017-12-23T15:53:23.135Z,9.91
2017-12-23T15:55:58.309Z,9.91
2017-12-23T15:58:33.363Z,9.87
2017-12-23T16:01:08.403Z,9.86
2017-12-23T16:03:43.304Z,9.87
2017-12-23T16:06:18.267Z,9.83
2017-12-23T16:08:53.373Z,9.82
2017-12-23T16:11:28.453Z,9.86
2017-12-23T16:14:03.345Z,9.88
2017-12-23T16:16:38.438Z,9.85
2017-12-23T16:19:13.553Z,9.82
2017-12-23T16:21:48.476Z,9.86
2017-12-23T16:24:23.461Z,9.91
2017-12-23T16:26:57.841Z,9.96
2017-12-23T16:29:32.940Z,9.92
2017-12-23T16:32:07.915Z,9.89
2017-12-23T16:34:42.995Z,9.87
2017-12-23T16:37:17.887Z,9.90
2017-12-23T16:39:53.096Z,9.93
2017-12-23T16:42:28.160Z,9.92
2017-12-23T16:45:03.244Z,9.90
2017-12-23T16:47:38.162Z,9.89
2017-12-23T16:50:13.244Z,9.85
2017-12-23T16:52:48.080Z,9.83
2017-12-23T16:55:23.165Z,9.83
2017-12-23T16:57:58.164Z,9.83
2017-12-23T17:00:33.144Z,9.79
2017-12-23T17:03:08.143Z,9.75
2017-12-23T17:05:43.030Z,9.80
2017-12-23T17:08:18.095Z,9.78
2017-12-23T17:10:53.088Z,9.79
2017-12-23T17:13:28.167Z,9.77
2017-12-23T17:16:03.175Z,9.74
2017-12-23T17:18:37.842Z,9.68
2017-12-23T17:21:12.599Z,9.68
2017-12-23T17:23:47.892Z,9.68
2017-12-23T17:26:22.962Z,9.65
2017-12-23T17:29:08.953Z,9.60
2017-12-23T17:31:43.681Z,9.58
2017-12-23T17:34:18.805Z,9.57
2017-12-23T17:36:53.992Z,9.62
2017-12-23T17:39:29.065Z,9.61
2017-12-23T17:42:04.056Z,9.65
2017-12-23T17:44:39.249Z,9.60
2017-12-23T17:47:14.262Z,9.61
2017-12-23T17:49:49.138Z,9.60
2017-12-23T17:52:24.085Z,9.63
2017-12-23T17:54:59.376Z,9.63
2017-12-23T17:57:34.473Z,9.68
2017-12-23T18:00:09.440Z,9.71
2017-12-23T18:02:44.505Z,9.71
2017-12-23T18:05:19.273Z,9.73
2017-12-23T18:07:54.185Z,9.75
2017-12-23T18:10:29.457Z,9.71
2017-12-23T18:13:04.257Z,9.69
2017-12-23T18:15:38.700Z,9.70
2017-12-23T18:18:13.900Z,9.71
2017-12-23T18:20:49.093Z,9.71
2017-12-23T18:23:24.090Z,9.72
2017-12-23T18:25:59.073Z,9.71
2017-12-23T18:28:34.150Z,9.72
2017-12-23T18:31:09.144Z,9.75
2017-12-23T18:33:44.125Z,9.76
2017-12-23T18:36:19.110Z,9.78
2017-12-23T18:38:54.313Z,9.79
2017-12-23T18:41:29.316Z,9.81
2017-12-23T18:44:04.593Z,9.81
2017-12-23T18:46:39.511Z,9.81
2017-12-23T18:49:14.394Z,9.82
2017-12-23T18:51:49.145Z,9.84
2017-12-23T18:54:24.360Z,9.91
2017-12-23T18:56:59.338Z,9.89
2017-12-23T18:59:34.337Z,9.90
2017-12-23T19:02:09.573Z,9.91
2017-12-23T19:04:44.570Z,9.91
2017-12-23T19:07:19.772Z,9.89
2017-12-23T19:09:55.060Z,9.88
2017-12-23T19:12:29.986Z,9.88
2017-12-23T19:15:05.209Z,9.91
2017-12-23T19:17:40.117Z,9.91
2017-12-23T19:20:14.499Z,9.97
2017-12-23T19:22:49.569Z,9.96
2017-12-23T19:25:24.844Z,9.95
2017-12-23T19:27:59.876Z,9.93
2017-12-23T19:30:34.997Z,9.94
2017-12-23T19:33:09.909Z,9.94
2017-12-23T19:35:44.976Z,9.97
2017-12-23T19:38:19.980Z,9.96
2017-12-23T19:40:55.260Z,9.97
2017-12-23T19:43:30.364Z,9.98
2017-12-23T19:46:05.444Z,10.01
2017-12-23T19:48:40.503Z,10.00
2017-12-23T19:51:15.474Z,9.99
2017-12-23T19:53:50.464Z,10.01
2017-12-23T19:56:25.347Z,10.04
2017-12-23T19:59:00.222Z,10.05
2017-12-23T20:01:35.042Z,10.02
2017-12-23T20:04:10.047Z,9.98
2017-12-23T20:06:45.204Z,9.98
2017-12-23T20:09:20.494Z,10.00
2017-12-23T20:11:55.272Z,10.00
2017-12-23T20:14:30.369Z,9.92
2017-12-23T20:17:05.487Z,9.85
2017-12-23T20:19:40.279Z,9.90
2017-12-23T20:22:15.309Z,9.91
2017-12-23T20:24:50.415Z,9.91
2017-12-23T20:27:25.393Z,9.89
2017-12-23T20:30:00.419Z,9.86
2017-12-23T20:32:35.392Z,9.84
2017-12-23T20:35:10.378Z,9.86
2017-12-23T20:37:45.358Z,9.87
2017-12-23T20:40:20.363Z,9.92
2017-12-23T20:42:55.266Z,9.94
2017-12-23T20:45:30.384Z,9.95
2017-12-23T20:48:05.546Z,9.98
2017-12-23T20:50:40.440Z,9.96
2017-12-23T20:53:15.268Z,9.93
2017-12-23T20:55:50.251Z,9.89
2017-12-23T20:58:25.426Z,9.87
2017-12-23T21:01:00.308Z,9.86
2017-12-23T21:03:35.290Z,9.89
2017-12-23T21:06:10.529Z,9.88
2017-12-23T21:08:45.722Z,9.91
2017-12-23T21:11:20.919Z,9.91
2017-12-23T21:13:55.748Z,9.94
2017-12-23T21:16:30.750Z,9.93
2017-12-23T21:19:05.982Z,9.92
2017-12-23T21:21:40.716Z,9.95
2017-12-23T21:24:15.144Z,9.98
2017-12-23T21:26:50.084Z,9.97
2017-12-23T21:29:25.203Z,9.91
2017-12-23T21:32:00.334Z,9.95
2017-12-23T21:34:35.322Z,9.96
2017-12-23T21:37:10.458Z,9.98
2017-12-23T21:39:45.598Z,9.92
2017-12-23T21:42:20.401Z,9.91
2017-12-23T21:44:55.425Z,9.89
2017-12-23T21:47:30.441Z,9.90
2017-12-23T21:50:05.469Z,9.94
2017-12-23T21:52:40.704Z,9.98
2017-12-23T21:55:15.981Z,10.00
2017-12-23T21:57:51.050Z,9.99
2017-12-23T22:00:26.274Z,10.02
2017-12-23T22:03:01.177Z,10.05
2017-12-23T22:05:36.197Z,10.03
2017-12-23T22:08:11.214Z,10.06
2017-12-23T22:10:46.234Z,10.07
2017-12-23T22:13:21.214Z,10.01
2017-12-23T22:15:56.353Z,10.00
2017-12-23T22:18:31.548Z,10.01
2017-12-23T22:21:06.649Z,10.05
2017-12-23T22:23:41.854Z,10.01
2017-12-23T22:26:17.002Z,10.05
2017-12-23T22:28:51.813Z,10.09
2017-12-23T22:31:26.756Z,10.04
2017-12-23T22:34:01.721Z,10.06
2017-12-23T22:36:36.808Z,10.00
2017-12-23T22:39:12.088Z,10.00
2017-12-23T22:41:47.089Z,9.97
2017-12-23T22:44:22.006Z,9.97
2017-12-23T22:46:57.495Z,10.00
2017-12-23T22:49:32.387Z,10.00
2017-12-23T22:52:07.322Z,10.03
2017-12-23T22:54:42.321Z,10.03
2017-12-23T22:57:17.442Z,10.11
2017-12-23T22:59:52.461Z,10.16
2017-12-23T23:02:27.465Z,10.13
2017-12-23T23:05:02.369Z,10.17
2017-12-23T23:07:37.344Z,10.20
2017-12-23T23:10:12.445Z,10.19
2017-12-23T23:12:47.429Z,10.20
2017-12-23T23:15:22.325Z,10.12
2017-12-23T23:17:57.157Z,10.22
2017-12-23T23:20:32.240Z,10.22
2017-12-23T23:23:07.246Z,10.22
2017-12-23T23:25:42.269Z,10.22
2017-12-23T23:28:17.186Z,10.25
2017-12-23T23:30:52.298Z,10.29
2017-12-23T23:33:27.372Z,10.26
2017-12-23T23:36:02.586Z,10.27
2017-12-23T23:38:37.514Z,10.26
2017-12-23T23:41:12.709Z,10.28
2017-12-23T23:43:47.793Z,10.29
2017-12-23T23:46:22.794Z,10.28
2017-12-23T23:48:57.898Z,10.29
2017-12-23T23:51:32.892Z,10.24
2017-12-23T23:54:07.498Z,10.24
2017-12-23T23:56:42.624Z,10.25
2017-12-23T23:59:17.965Z,10.26
